createdAt,value
2022-09-29T00:01:49.510Z,5.40
2022-09-29T00:04:35.036Z,5.72
2022-09-29T00:07:20.642Z,4.95
2022-09-29T00:10:06.521Z,4.15
2022-09-29T00:12:52.033Z,4.13
2022-09-29T00:15:37.998Z,3.80
2022-09-29T00:18:23.603Z,3.72
2022-09-29T00:21:11.823Z,3.10
2022-09-29T00:24:01.165Z,3.47
2022-09-29T00:26:47.645Z,3.08
2022-09-29T00:29:33.147Z,3.28
2022-09-29T00:32:19.218Z,2.97
2022-09-29T00:35:05.318Z,3.22
2022-09-29T00:37:51.127Z,3.65
2022-09-29T00:40:37.064Z,3.38
2022-09-29T00:43:25.802Z,2.95
2022-09-29T00:46:12.481Z,2.75
2022-09-29T00:49:02.652Z,2.50
2022-09-29T00:52:14.700Z,2.92
2022-09-29T00:55:25.470Z,2.90
2022-09-29T00:58:36.672Z,2.72
2022-09-29T01:01:24.837Z,2.58
2022-09-29T01:04:16.780Z,3.10
2022-09-29T01:07:02.815Z,2.55
2022-09-29T01:09:51.001Z,2.08
2022-09-29T01:12:36.790Z,1.85
2022-09-29T01:15:23.149Z,2.25
2022-09-29T01:18:09.243Z,2.60
2022-09-29T01:21:16.022Z,2.95
2022-09-29T01:24:32.321Z,2.72
2022-09-29T01:27:36.607Z,2.15
2022-09-29T01:30:40.943Z,3.00
2022-09-29T01:34:03.284Z,2.45
2022-09-29T01:37:02.229Z,2.13
2022-09-29T01:39:51.262Z,2.25
2022-09-29T01:42:43.184Z,2.30
2022-09-29T01:45:43.125Z,2.20
2022-09-29T01:48:36.343Z,2.47
2022-09-29T01:51:39.348Z,2.35
2022-09-29T01:54:34.968Z,2.47
2022-09-29T01:57:29.971Z,2.25
2022-09-29T02:00:18.955Z,2.22
2022-09-29T02:03:26.406Z,2.63
2022-09-29T02:06:21.528Z,2.85
2022-09-29T02:09:17.845Z,2.83
2022-09-29T02:12:05.159Z,2.53
2022-09-29T02:14:53.647Z,2.83
2022-09-29T02:17:43.554Z,2.70
2022-09-29T02:20:29.278Z,2.50
2022-09-29T02:23:14.879Z,2.65
2022-09-29T02:26:01.373Z,2.30
2022-09-29T02:28:47.762Z,2.45
2022-09-29T02:31:35.186Z,2.40
2022-09-29T02:34:22.367Z,2.58
2022-09-29T02:37:32.479Z,2.00
2022-09-29T02:40:37.177Z,2.35
2022-09-29T02:43:41.187Z,2.25
2022-09-29T02:46:35.746Z,2.17
2022-09-29T02:49:53.686Z,2.40
2022-09-29T02:52:59.802Z,2.95
2022-09-29T02:55:57.233Z,2.60
2022-09-29T02:59:04.441Z,2.92
2022-09-29T03:01:52.407Z,2.80
2022-09-29T03:04:38.009Z,2.70
2022-09-29T03:07:23.880Z,3.10
2022-09-29T03:10:11.319Z,3.22
2022-09-29T03:12:57.091Z,3.03
2022-09-29T03:15:43.964Z,2.78
2022-09-29T03:18:29.643Z,2.95
2022-09-29T03:21:15.362Z,3.28
2022-09-29T03:24:01.554Z,3.05
2022-09-29T03:26:47.379Z,3.20
2022-09-29T03:29:33.339Z,3.00
2022-09-29T03:32:18.978Z,3.10
2022-09-29T03:35:05.339Z,3.40
2022-09-29T03:37:50.862Z,3.33
2022-09-29T03:40:36.161Z,3.50
2022-09-29T03:43:21.874Z,3.03
2022-09-29T03:46:07.538Z,3.40
2022-09-29T03:48:54.211Z,4.05
2022-09-29T03:51:40.130Z,3.95
2022-09-29T03:54:27.971Z,3.63
2022-09-29T03:57:13.859Z,3.10
2022-09-29T03:59:59.167Z,3.20
2022-09-29T04:02:44.812Z,3.47
2022-09-29T04:05:30.828Z,3.45
2022-09-29T04:08:16.943Z,3.10
2022-09-29T04:11:02.518Z,3.42
2022-09-29T04:13:48.350Z,3.38
2022-09-29T04:16:34.109Z,3.80
2022-09-29T04:19:20.221Z,3.55
2022-09-29T04:22:06.007Z,3.30
2022-09-29T04:24:52.202Z,3.60
2022-09-29T04:27:37.975Z,3.75
2022-09-29T04:30:23.375Z,2.70
2022-09-29T04:33:09.963Z,3.35
2022-09-29T04:35:56.562Z,3.63
2022-09-29T04:38:42.293Z,3.90
2022-09-29T04:41:28.038Z,3.35
2022-09-29T04:44:13.870Z,3.10
2022-09-29T04:46:59.692Z,2.92
2022-09-29T04:49:45.481Z,3.10
2022-09-29T04:52:30.864Z,3.30
2022-09-29T04:55:17.104Z,4.10
2022-09-29T04:58:02.666Z,3.13
2022-09-29T05:00:48.380Z,3.83
2022-09-29T05:03:34.036Z,4.00
2022-09-29T05:06:19.479Z,3.97
2022-09-29T05:09:08.741Z,3.25
2022-09-29T05:11:54.507Z,3.72
2022-09-29T05:14:40.146Z,3.85
2022-09-29T05:17:25.930Z,3.90
2022-09-29T05:20:13.217Z,4.70
2022-09-29T05:23:01.760Z,3.97
2022-09-29T05:25:47.641Z,4.25
2022-09-29T05:28:33.551Z,3.83
2022-09-29T05:31:19.255Z,3.90
2022-09-29T05:34:05.187Z,3.60
2022-09-29T05:36:51.029Z,4.45
2022-09-29T05:39:37.687Z,4.50
2022-09-29T05:42:25.861Z,4.30
2022-09-29T05:45:12.023Z,4.18
2022-09-29T05:47:57.622Z,4.22
2022-09-29T05:50:44.528Z,3.58
2022-09-29T05:53:31.235Z,3.75
2022-09-29T05:56:20.661Z,3.25
2022-09-29T05:59:06.286Z,4.07
2022-09-29T06:01:52.183Z,3.60
2022-09-29T06:04:40.849Z,3.10
2022-09-29T06:07:26.561Z,2.70
2022-09-29T06:10:12.685Z,2.80
2022-09-29T06:12:58.748Z,3.20
2022-09-29T06:15:44.130Z,3.20
2022-09-29T06:18:30.942Z,2.63
2022-09-29T06:21:25.876Z,3.28
2022-09-29T06:24:11.845Z,3.10
2022-09-29T06:26:57.535Z,2.42
2022-09-29T06:29:43.130Z,3.85
2022-09-29T06:32:28.875Z,3.50
2022-09-29T06:35:50.024Z,4.43
2022-09-29T06:38:36.538Z,3.20
2022-09-29T06:41:22.289Z,2.47
2022-09-29T06:44:08.163Z,3.60
2022-09-29T06:46:54.604Z,2.97
2022-09-29T06:49:39.930Z,3.28
2022-09-29T06:52:29.842Z,2.92
2022-09-29T06:55:15.968Z,3.38
2022-09-29T06:58:04.363Z,3.75
2022-09-29T07:00:51.006Z,3.38
2022-09-29T07:03:36.647Z,3.92
2022-09-29T07:06:22.287Z,3.70
2022-09-29T07:09:07.945Z,4.00
2022-09-29T07:11:53.355Z,3.97
2022-09-29T07:14:38.833Z,4.15
2022-09-29T07:17:24.507Z,4.43
2022-09-29T07:20:10.183Z,5.78
2022-09-29T07:22:55.732Z,5.30
2022-09-29T07:25:51.505Z,5.40
2022-09-29T07:28:37.782Z,6.05
2022-09-29T07:31:23.385Z,6.68
2022-09-29T07:34:09.534Z,7.22
2022-09-29T07:36:55.427Z,6.93
2022-09-29T07:39:40.823Z,7.07
2022-09-29T07:42:28.453Z,7.65
2022-09-29T07:45:14.439Z,7.20
2022-09-29T07:47:59.892Z,7.70
2022-09-29T07:50:46.451Z,7.22
2022-09-29T07:53:32.643Z,7.28
2022-09-29T07:56:21.351Z,7.38
2022-09-29T07:59:07.291Z,7.70
2022-09-29T08:01:53.261Z,8.68
2022-09-29T08:04:38.959Z,6.63
2022-09-29T08:07:24.765Z,7.28
2022-09-29T08:10:16.690Z,6.82
2022-09-29T08:13:02.760Z,7.25
2022-09-29T08:15:48.371Z,6.82
2022-09-29T08:18:35.626Z,7.10
2022-09-29T08:21:21.341Z,7.97
2022-09-29T08:24:07.451Z,6.93
2022-09-29T08:26:53.040Z,6.78
2022-09-29T08:29:45.995Z,7.78
2022-09-29T08:32:32.227Z,8.23
2022-09-29T08:35:18.057Z,7.95
2022-09-29T08:38:03.781Z,9.63
2022-09-29T08:40:49.659Z,10.20
2022-09-29T08:43:41.183Z,8.63
2022-09-29T08:46:43.462Z,9.32
2022-09-29T08:49:42.156Z,10.60
2022-09-29T08:52:47.009Z,10.43
2022-09-29T08:55:54.065Z,10.80
2022-09-29T08:58:40.214Z,12.15
2022-09-29T09:02:04.106Z,11.75
2022-09-29T09:08:17.499Z,13.85
2022-09-29T09:11:18.622Z,12.07
2022-09-29T09:14:46.417Z,13.20
2022-09-29T09:18:10.242Z,14.18
2022-09-29T09:21:09.862Z,13.13
2022-09-29T09:24:13.313Z,12.20
2022-09-29T09:29:46.246Z,13.50
2022-09-29T09:32:37.983Z,15.38
2022-09-29T09:35:56.952Z,17.10
2022-09-29T09:39:06.412Z,17.90
2022-09-29T09:41:56.201Z,18.55
2022-09-29T09:44:49.629Z,19.35
2022-09-29T09:47:42.750Z,17.35
2022-09-29T09:50:29.434Z,17.08
2022-09-29T09:53:33.146Z,17.45
2022-09-29T09:56:31.651Z,15.55
2022-09-29T09:59:22.870Z,16.30
2022-09-29T10:02:17.213Z,16.27
2022-09-29T10:05:07.372Z,14.82
2022-09-29T10:07:56.239Z,14.93
2022-09-29T10:10:51.330Z,16.02
2022-09-29T10:13:43.888Z,13.85
2022-09-29T10:17:00.829Z,13.07
2022-09-29T10:19:59.254Z,13.23
2022-09-29T10:22:48.482Z,11.98
2022-09-29T10:25:37.609Z,12.55
2022-09-29T10:28:24.278Z,10.85
2022-09-29T10:31:27.781Z,10.30
2022-09-29T10:37:05.701Z,7.82
2022-09-29T10:40:22.875Z,5.80
2022-09-29T10:43:31.763Z,4.70
2022-09-29T10:47:07.307Z,3.55
2022-09-29T10:50:19.963Z,3.40
2022-09-29T10:53:18.582Z,2.85
2022-09-29T10:56:22.223Z,1.58
2022-09-29T10:59:11.311Z,1.15
2022-09-29T11:02:01.400Z,1.15
2022-09-29T11:04:48.359Z,1.13
2022-09-29T11:07:34.654Z,0.90
2022-09-29T11:10:35.593Z,1.05
2022-09-29T11:13:26.759Z,1.20
2022-09-29T11:16:24.375Z,0.82
2022-09-29T11:19:13.926Z,1.23
2022-09-29T11:22:40.205Z,0.90
2022-09-29T11:25:39.421Z,0.88
2022-09-29T11:28:34.297Z,0.73
2022-09-29T11:31:42.847Z,1.20
2022-09-29T11:34:31.398Z,0.80
2022-09-29T11:37:57.980Z,0.77
2022-09-29T11:41:08.071Z,0.75
2022-09-29T11:44:15.429Z,0.77
2022-09-29T11:47:16.462Z,1.10
2022-09-29T11:50:23.589Z,1.05
2022-09-29T11:53:38.489Z,0.65
2022-09-29T11:56:31.830Z,0.93
2022-09-29T12:02:36.434Z,1.10
2022-09-29T12:05:31.323Z,0.98
2022-09-29T12:08:27.206Z,0.80
2022-09-29T12:15:08.184Z,0.93
2022-09-29T12:18:14.724Z,0.93
2022-09-29T12:21:02.520Z,0.90
2022-09-29T12:23:49.069Z,0.80
2022-09-29T12:26:35.434Z,1.17
2022-09-29T12:30:09.185Z,0.80
2022-09-29T12:33:14.939Z,0.88
2022-09-29T12:36:04.031Z,0.88
2022-09-29T12:38:50.625Z,0.95
2022-09-29T12:41:43.474Z,0.80
2022-09-29T12:44:42.785Z,0.93
2022-09-29T12:47:49.630Z,0.63
2022-09-29T12:51:01.890Z,0.95
2022-09-29T12:54:00.737Z,1.15
2022-09-29T12:57:00.802Z,0.68
2022-09-29T12:59:52.819Z,0.85
2022-09-29T13:03:07.517Z,0.90
2022-09-29T13:06:20.353Z,0.90
2022-09-29T13:09:09.152Z,0.77
2022-09-29T13:12:13.770Z,1.00
2022-09-29T13:15:05.496Z,1.00
2022-09-29T13:18:13.061Z,0.70
2022-09-29T13:20:59.093Z,1.15
2022-09-29T13:24:19.042Z,1.20
2022-09-29T13:27:30.643Z,0.88
2022-09-29T13:30:20.014Z,0.93
2022-09-29T13:33:19.880Z,1.05
2022-09-29T13:36:05.777Z,1.00
2022-09-29T13:38:57.146Z,0.98
2022-09-29T13:41:43.174Z,1.00
2022-09-29T13:44:29.226Z,1.10
2022-09-29T13:47:32.694Z,1.00
2022-09-29T13:50:40.203Z,0.75
2022-09-29T13:53:37.511Z,1.30
2022-09-29T13:56:23.505Z,0.95
2022-09-29T13:59:21.318Z,1.08
2022-09-29T14:02:41.439Z,0.70
2022-09-29T14:05:27.013Z,0.80
2022-09-29T14:08:26.155Z,0.80
2022-09-29T14:11:17.689Z,0.90
2022-09-29T14:14:15.325Z,0.82
2022-09-29T14:17:01.755Z,0.80
2022-09-29T14:20:13.457Z,0.95
2022-09-29T14:23:07.787Z,0.98
2022-09-29T14:25:54.473Z,1.10
2022-09-29T14:28:43.924Z,1.00
2022-09-29T14:31:31.597Z,1.02
2022-09-29T14:34:20.419Z,0.90
2022-09-29T14:37:14.254Z,0.93
2022-09-29T14:40:19.052Z,2.45
2022-09-29T14:43:16.587Z,0.90
2022-09-29T14:46:39.447Z,0.88
2022-09-29T14:50:02.266Z,1.02
2022-09-29T14:53:06.724Z,0.90
2022-09-29T14:56:15.101Z,1.00
2022-09-29T14:59:26.070Z,1.05
2022-09-29T15:02:18.037Z,1.02
2022-09-29T15:05:16.218Z,1.00
2022-09-29T15:08:20.090Z,1.08
2022-09-29T15:11:46.522Z,0.90
2022-09-29T15:14:39.443Z,0.70
2022-09-29T15:18:08.113Z,0.80
2022-09-29T15:21:14.001Z,0.90
2022-09-29T15:24:30.232Z,0.90
2022-09-29T15:27:15.811Z,0.82
2022-09-29T15:30:01.744Z,1.00
2022-09-29T15:32:49.758Z,0.98
2022-09-29T15:35:41.074Z,1.00
2022-09-29T15:38:32.770Z,0.80
2022-09-29T15:41:26.301Z,0.80
2022-09-29T15:44:19.608Z,0.80
2022-09-29T15:47:06.078Z,0.80
2022-09-29T15:49:53.260Z,0.70
2022-09-29T15:52:38.836Z,0.90
2022-09-29T15:55:25.582Z,1.15
2022-09-29T15:58:44.454Z,0.90
2022-09-29T16:01:30.217Z,0.85
2022-09-29T16:04:16.974Z,0.95
2022-09-29T16:07:04.098Z,1.00
2022-09-29T16:09:50.623Z,0.90
2022-09-29T16:12:40.411Z,0.95
2022-09-29T16:15:35.005Z,0.75
2022-09-29T16:18:45.607Z,1.10
2022-09-29T16:21:37.897Z,0.90
2022-09-29T16:24:27.251Z,0.80
2022-09-29T16:27:50.632Z,1.00
2022-09-29T16:30:40.746Z,0.90
2022-09-29T16:33:26.804Z,1.38
2022-09-29T16:36:20.207Z,0.93
2022-09-29T16:39:06.967Z,0.80
2022-09-29T16:41:58.816Z,0.70
2022-09-29T16:44:44.939Z,1.08
2022-09-29T16:47:32.912Z,0.60
2022-09-29T16:50:19.805Z,0.98
2022-09-29T16:53:05.667Z,0.88
2022-09-29T16:56:22.482Z,1.17
2022-09-29T16:59:16.332Z,1.13
2022-09-29T17:02:06.042Z,1.05
2022-09-29T17:04:53.315Z,0.90
2022-09-29T17:07:44.511Z,1.02
2022-09-29T17:10:33.502Z,1.17
2022-09-29T17:13:21.787Z,1.27
2022-09-29T17:16:10.993Z,1.52
2022-09-29T17:18:57.450Z,1.40
2022-09-29T17:21:43.414Z,1.00
2022-09-29T17:24:30.226Z,1.08
2022-09-29T17:27:34.351Z,1.35
2022-09-29T17:30:22.748Z,1.40
2022-09-29T17:33:12.094Z,1.23
2022-09-29T17:35:57.995Z,1.50
2022-09-29T17:38:43.609Z,1.20
2022-09-29T17:41:29.269Z,1.60
2022-09-29T17:44:15.126Z,1.20
2022-09-29T17:47:17.547Z,1.10
2022-09-29T17:50:40.890Z,1.25
2022-09-29T17:53:27.155Z,1.58
2022-09-29T17:56:28.499Z,1.67
2022-09-29T17:59:14.339Z,1.65
2022-09-29T18:02:00.993Z,1.40
2022-09-29T18:04:49.365Z,1.17
2022-09-29T18:07:34.827Z,1.42
2022-09-29T18:10:30.971Z,1.10
2022-09-29T18:13:16.963Z,1.20
2022-09-29T18:16:02.814Z,1.20
2022-09-29T18:18:49.195Z,1.20
2022-09-29T18:21:34.755Z,1.30
2022-09-29T18:24:20.850Z,1.20
2022-09-29T18:27:07.889Z,1.27
2022-09-29T18:29:53.454Z,1.67
2022-09-29T18:32:39.817Z,1.55
2022-09-29T18:35:35.812Z,1.20
2022-09-29T18:38:22.113Z,1.20
2022-09-29T18:41:15.203Z,1.52
2022-09-29T18:44:01.205Z,0.95
2022-09-29T18:46:46.722Z,1.40
2022-09-29T18:49:32.655Z,1.42
2022-09-29T18:52:18.511Z,1.10
2022-09-29T18:55:06.270Z,1.67
2022-09-29T18:57:57.520Z,1.40
2022-09-29T19:00:47.558Z,1.52
2022-09-29T19:03:33.983Z,1.40
2022-09-29T19:06:19.927Z,1.55
2022-09-29T19:09:05.625Z,1.20
2022-09-29T19:11:51.087Z,1.10
2022-09-29T19:14:37.657Z,1.13
2022-09-29T19:17:24.964Z,1.40
2022-09-29T19:20:12.570Z,1.38
2022-09-29T19:23:03.006Z,1.35
2022-09-29T19:25:50.876Z,1.60
2022-09-29T19:28:37.034Z,2.67
2022-09-29T19:31:26.098Z,2.35
2022-09-29T19:34:11.966Z,2.10
2022-09-29T19:36:57.850Z,2.08
2022-09-29T19:39:46.875Z,2.10
2022-09-29T19:42:32.863Z,2.50
2022-09-29T19:45:19.432Z,2.35
2022-09-29T19:48:15.231Z,2.72
2022-09-29T19:51:19.373Z,3.00
2022-09-29T19:54:10.655Z,2.78
2022-09-29T19:57:01.300Z,2.70
2022-09-29T19:59:46.752Z,2.63
2022-09-29T20:02:32.514Z,3.00
2022-09-29T20:05:18.430Z,2.60
2022-09-29T20:08:04.605Z,2.00
2022-09-29T20:10:50.193Z,1.63
2022-09-29T20:13:36.351Z,1.42
2022-09-29T20:16:22.656Z,1.67
2022-09-29T20:19:12.055Z,1.70
2022-09-29T20:21:57.498Z,1.60
2022-09-29T20:24:43.013Z,1.63
2022-09-29T20:27:28.952Z,1.58
2022-09-29T20:30:14.774Z,1.83
2022-09-29T20:33:00.569Z,1.58
2022-09-29T20:35:46.162Z,2.00
2022-09-29T20:38:34.421Z,1.20
2022-09-29T20:41:20.381Z,1.10
2022-09-29T20:44:06.156Z,1.40
2022-09-29T20:46:52.960Z,1.90
2022-09-29T20:49:39.268Z,1.60
2022-09-29T20:52:24.906Z,1.70
2022-09-29T20:55:11.995Z,1.90
2022-09-29T20:58:00.467Z,2.67
2022-09-29T21:00:45.987Z,3.10
2022-09-29T21:03:31.964Z,2.88
2022-09-29T21:06:19.187Z,3.10
2022-09-29T21:09:06.618Z,2.22
2022-09-29T21:11:53.620Z,1.92
2022-09-29T21:14:39.310Z,2.08
2022-09-29T21:17:24.930Z,1.50
2022-09-29T21:20:10.923Z,2.20
2022-09-29T21:22:56.898Z,2.10
2022-09-29T21:25:42.492Z,2.00
2022-09-29T21:28:28.845Z,2.03
2022-09-29T21:31:17.663Z,1.92
2022-09-29T21:34:07.041Z,1.80
2022-09-29T21:36:52.429Z,2.22
2022-09-29T21:39:38.566Z,2.03
2022-09-29T21:42:24.755Z,2.45
2022-09-29T21:45:11.046Z,2.20
2022-09-29T21:48:08.810Z,1.80
2022-09-29T21:51:02.497Z,2.10
2022-09-29T21:53:48.183Z,2.10
2022-09-29T21:56:40.659Z,2.10
2022-09-29T21:59:26.497Z,1.92
2022-09-29T22:02:12.063Z,1.90
2022-09-29T22:04:57.688Z,2.00
2022-09-29T22:07:43.463Z,1.88
2022-09-29T22:10:29.129Z,2.13
2022-09-29T22:13:14.618Z,1.98
2022-09-29T22:16:04.302Z,2.30
2022-09-29T22:19:11.739Z,2.42
2022-09-29T22:21:56.561Z,2.10
2022-09-29T22:24:42.615Z,2.25
2022-09-29T22:27:28.356Z,2.47
2022-09-29T22:30:14.230Z,2.00
2022-09-29T22:33:00.060Z,2.00
2022-09-29T22:35:46.558Z,2.00
2022-09-29T22:38:36.163Z,2.05
2022-09-29T22:41:24.006Z,1.70
2022-09-29T22:44:09.996Z,1.70
2022-09-29T22:46:56.520Z,2.00
2022-09-29T22:49:42.644Z,2.38
2022-09-29T22:52:28.367Z,1.80
2022-09-29T22:55:14.045Z,2.38
2022-09-29T22:58:00.078Z,1.85
2022-09-29T23:00:46.047Z,2.20
2022-09-29T23:03:31.741Z,1.92
2022-09-29T23:06:17.407Z,2.25
2022-09-29T23:09:03.029Z,2.53
2022-09-29T23:11:49.308Z,2.17
2022-09-29T23:14:35.019Z,2.10
2022-09-29T23:17:21.606Z,2.17
2022-09-29T23:20:08.368Z,2.20
2022-09-29T23:22:54.284Z,1.88
2022-09-29T23:25:39.893Z,1.90
2022-09-29T23:28:26.865Z,2.10
2022-09-29T23:31:12.940Z,1.90
2022-09-29T23:34:00.151Z,2.35
2022-09-29T23:36:45.810Z,2.10
2022-09-29T23:39:31.491Z,2.00
2022-09-29T23:42:17.126Z,2.20
2022-09-29T23:45:02.702Z,2.10
2022-09-29T23:47:48.239Z,2.00
2022-09-29T23:50:33.751Z,2.20
2022-09-29T23:53:19.831Z,2.15
2022-09-29T23:56:05.599Z,2.30
2022-09-29T23:58:51.338Z,2.00
